Wekerom, Netherlands
Current Conditions -  °F | °C
As of 8:25 AM on Friday 31 Oct 2014 (Local Time) from EHDL Reporting Station
Haze Haze  
Wind Chill: 52°   Ceiling: 10000
Heat Index: 52°   Visibility: 6mi
Dew Point: 52°   Wind: 6mph
Humidity: 100%   Direction: 170°S
Pressure: 30.15"   Gusts: NA
Location:  52.11°N, 5.71°E
Report Text: EHDL 310725Z AUTO 17005KT 9000 BR OVC100 11/11 Q1021 BLU
Loading
Personal Weather Stations






























Interactive Weather Map
Tropical Storm Tracking
New forecast layout! Learn more

10-Day Weather Forecast

Advertisements
Track Severe Weather on mobile